Terminal Aerodrome Forecast
Issued by NWS Bismarck, ND

Home | Current Version | Previous Version | Graphics & Text | Print | Product List | Glossary On
Versions: 1 2 3 4 5 6 7 8 9 10 11 12 13 14 15 16 17 18 19 20 21 22 23 24 25 26 27
872
FTUS43 KBIS 191008 AAA
TAFISN
TAF AMD
KISN 191008Z 1910/2006 09006KT P6SM FEW008 BKN180
     FM191100 08006KT P6SM SCT015 BKN035
     FM191600 10006KT P6SM BKN250
     FM200100 VRB03KT P6SM BKN200=

USA.gov is the U.S. government's official web portal to all federal, state and local government web resources and services.